Asahimaru No.8 — JD3733 — position and weather

sailwx.info

Track history (hours):
 
Tides and Currents Weather Stations Pressure Air Temp Water Temp Dewpoint Dewpoint Depression Visibility Wind Speed Wind Dir Waves Ship Positions

Asahimaru No.8

Last reported at 2018-Jun-21 08:09 UTC. Time now 2018-Jun-24 18:53 UTC.
Position N 34°33' E 134°60'.

Length 49 m.

Type: Tanker. MMSI: 431005645.

Date/timePositionNaut miles runAvg speedWind from/ knotsBaromVisibWave heightAir tempDewpointWater temp
2018-Jun-21 08:09N 34°33' E 134°60'0 0.0
2018-Jun-21 07:57N 34°33' E 134°60'0 0.0
2018-Jun-21 07:27N 34°33' E 134°60'0 0.0
2018-Jun-21 06:57N 34°33' E 134°60'0 0.0
2018-Jun-21 06:27N 34°33' E 134°60'0 0.0
2018-Jun-21 05:57N 34°33' E 134°60'0 0.0
2018-Jun-21 05:27N 34°33' E 134°60'0 0.0
2018-Jun-21 04:57N 34°33' E 134°60'0 0.0
2018-Jun-21 04:27N 34°33' E 134°60'0 0.0
2018-Jun-21 03:57N 34°33' E 134°60'0 0.0
2018-Jun-21 03:27N 34°33' E 134°60'0 0.0
2018-Jun-21 02:52N 34°33' E 134°60'4 8.1
2018-Jun-21 02:26N 34°33' E 135°04'410.2
2018-Jun-21 02:00N 34°35' E 135°09'510.9
2018-Jun-21 01:30N 34°37' E 135°15'611.1
2018-Jun-21 01:00N 34°39' E 135°21'3 1.8
2018-Jun-20 23:17N 34°41' E 135°24'0 0.0
2018-Jun-20 22:59N 34°41' E 135°24'1 2.0
2018-Jun-20 22:26N 34°40' E 135°23'4 9.9
2018-Jun-20 21:59N 34°38' E 135°18'5 9.4
2018-Jun-20 21:28N 34°37' E 135°13'510.4
2018-Jun-20 20:58N 34°35' E 135°07'510.5
2018-Jun-20 20:30N 34°33' E 135°02'1 0.1
2018-Jun-20 08:27N 34°33' E 135°00'10 6.6
2018-Jun-20 06:54N 34°32' E 134°48'4 9.5
2018-Jun-20 06:30N 34°31' E 134°43'610.1
2018-Jun-20 05:51N 34°28' E 134°36'  
2018-Jun-17 19:38N 34°35' E 135°02'1 8.6
2018-Jun-17 19:30N 34°34' E 135°02'7 0.4
2018-Jun-17 04:11N 34°27' E 135°01'210.9
2018-Jun-17 04:00N 34°25' E 135°02'510.1
2018-Jun-17 03:30N 34°20' E 135°03'5 9.7
2018-Jun-17 03:00N 34°15' E 135°03'710.4
2018-Jun-17 02:19N 34°09' E 135°06'2 0.7
2018-Jun-16 23:34N 34°07' E 135°08'0 0.5
2018-Jun-16 23:22N 34°07' E 135°08'0 0.1
2018-Jun-16 22:58N 34°07' E 135°08'0 0.0
2018-Jun-16 22:28N 34°07' E 135°08'7 7.7
2018-Jun-16 21:34N 34°08' E 134°59'110.6
2018-Jun-16 21:30N 34°08' E 134°58'28 0.6
2018-Jun-14 21:16N 34°35' E 135°02'3 0.2
2018-Jun-14 07:43N 34°33' E 134°60'3 7.8
2018-Jun-14 07:18N 34°29' E 135°01'411.6
2018-Jun-14 06:59N 34°26' E 135°01'511.0
2018-Jun-14 06:30N 34°20' E 135°00'5 9.8
2018-Jun-14 06:00N 34°16' E 134°59'5 9.3
2018-Jun-14 05:28N 34°13' E 134°54'  
Track history (hours):
 
Tides and Currents Weather Stations Pressure Air Temp Water Temp Dewpoint Dewpoint Depression Visibility Wind Speed Wind Dir Waves Ship Positions

Asahimaru No.8

Last reported at 2018-Jun-21 08:09 UTC. Time now 2018-Jun-24 18:53 UTC.
Position N 34°33' E 134°60'.

Length 49 m.

Type: Tanker. MMSI: 431005645.

Date/timePositionNaut miles runAvg speedWind from/ knotsBaromVisibWave heightAir tempDewpointWater temp
2018-Jun-21 08:09N 34°33' E 134°60'0 0.0
2018-Jun-21 07:57N 34°33' E 134°60'0 0.0
2018-Jun-21 07:27N 34°33' E 134°60'0 0.0
2018-Jun-21 06:57N 34°33' E 134°60'0 0.0
2018-Jun-21 06:27N 34°33' E 134°60'0 0.0
2018-Jun-21 05:57N 34°33' E 134°60'0 0.0
2018-Jun-21 05:27N 34°33' E 134°60'0 0.0
2018-Jun-21 04:57N 34°33' E 134°60'0 0.0
2018-Jun-21 04:27N 34°33' E 134°60'0 0.0
2018-Jun-21 03:57N 34°33' E 134°60'0 0.0
2018-Jun-21 03:27N 34°33' E 134°60'0 0.0
2018-Jun-21 02:52N 34°33' E 134°60'4 8.1
2018-Jun-21 02:26N 34°33' E 135°04'410.2
2018-Jun-21 02:00N 34°35' E 135°09'510.9
2018-Jun-21 01:30N 34°37' E 135°15'611.1
2018-Jun-21 01:00N 34°39' E 135°21'3 1.8
2018-Jun-20 23:17N 34°41' E 135°24'0 0.0
2018-Jun-20 22:59N 34°41' E 135°24'1 2.0
2018-Jun-20 22:26N 34°40' E 135°23'4 9.9
2018-Jun-20 21:59N 34°38' E 135°18'5 9.4
2018-Jun-20 21:28N 34°37' E 135°13'510.4
2018-Jun-20 20:58N 34°35' E 135°07'510.5
2018-Jun-20 20:30N 34°33' E 135°02'1 0.1
2018-Jun-20 08:27N 34°33' E 135°00'10 6.6
2018-Jun-20 06:54N 34°32' E 134°48'4 9.5
2018-Jun-20 06:30N 34°31' E 134°43'610.1
2018-Jun-20 05:51N 34°28' E 134°36'  
2018-Jun-17 19:38N 34°35' E 135°02'1 8.6
2018-Jun-17 19:30N 34°34' E 135°02'7 0.4
2018-Jun-17 04:11N 34°27' E 135°01'210.9
2018-Jun-17 04:00N 34°25' E 135°02'510.1
2018-Jun-17 03:30N 34°20' E 135°03'5 9.7
2018-Jun-17 03:00N 34°15' E 135°03'710.4
2018-Jun-17 02:19N 34°09' E 135°06'2 0.7
2018-Jun-16 23:34N 34°07' E 135°08'0 0.5
2018-Jun-16 23:22N 34°07' E 135°08'0 0.1
2018-Jun-16 22:58N 34°07' E 135°08'0 0.0
2018-Jun-16 22:28N 34°07' E 135°08'7 7.7
2018-Jun-16 21:34N 34°08' E 134°59'110.6
2018-Jun-16 21:30N 34°08' E 134°58'28 0.6
2018-Jun-14 21:16N 34°35' E 135°02'3 0.2
2018-Jun-14 07:43N 34°33' E 134°60'3 7.8
2018-Jun-14 07:18N 34°29' E 135°01'411.6
2018-Jun-14 06:59N 34°26' E 135°01'511.0
2018-Jun-14 06:30N 34°20' E 135°00'5 9.8
2018-Jun-14 06:00N 34°16' E 134°59'5 9.3
2018-Jun-14 05:28N 34°13' E 134°54'  

Dump ship's entire track history